Aeroporto :
LOGIN :

Iscrizione | Disclaimer

   EN    FR    IT 

 










Sommario :    VFR   VFR Marginale   IFR   IFR Intensivo   IFR Molto Intensivo
Visibilità : 
Base nubi : 
>= 8 km
>= 3000ft
5 / 8 km
1000 / 3000 ft
1500m / 5 km
500 / 1000 ft
800 / 1500m
200 / 500 ft
< 800m
< 200 ft
Simboli :   Temporali  Nebbia  Neve Forte  Precipitazioni Forti  Vento > 20 kt
SIGMETs :   Varie  Temporali  Ghiacco  Turbolenza  Onda orograficha  Ceneri Vulcaniche






- Altitudine del aeroporto : 408 ft
- Codice IATA : FKB


EDSB - Karlsruhe Baden Baden

ULTIMO METAR :
  • 151450Z 36004KT 310V030 CAVOK 30/17 Q1009

METARs OBSOLETI :
  • 151420Z 33004KT 300V010 CAVOK 29/18 Q1010
  • 151350Z 35004KT 300V020 CAVOK 28/19 Q1010
  • 151320Z 34005KT 320V020 CAVOK 28/18 Q1010
  • 151250Z 36005KT 300V040 CAVOK 28/19 Q1010
  • 151220Z 35005KT 320V040 CAVOK 27/17 Q1011
  • 151150Z 34005KT 300V030 CAVOK 27/18 Q1011
  • 151120Z 35005KT 320V030 CAVOK 26/17 Q1011
  • 151050Z 36005KT 320V030 CAVOK 26/18 Q1012
  • 151020Z 36006KT 330V030 CAVOK 24/17 Q1012

TAF TAF EDSB
Valido dal 15 a 12 ore il 16 a 12 ore UTC


151100Z 1512/1612 36006KT CAVOK
PROB30
TEMPO 1517/1520 TSRA BKN030CB
BECMG 1518/1520 23007KT
TEMPO 1520/1523 24020G30KT 2000 TSRA BKN020CB
TEMPO 1523/1606 BKN014



MetMap, La meteo Aeronautica in un colpo d'occhio ! - Copyright ORBIFLY Dicembre 2007 - Disclaimer

ORBIFLY MET'MAP TEAM :

Programmazione e sviluppo : Alexandra Zaïnal
Concezione : Baudouin d'Aumeries
Supporto tecnico e logistico : Manuel Goepfert
Aiuto : Marc-Olivier Méhu
Aiuto per la traduzione : Arnaldo La Scala




FONTI E CREDITI :

   NOAA